Time;durP1;ratioP1;P1;durP2;ratioP2;P2;SDS_P1;SDS_P2;PMS_P1;PMS_P2;Temp;Humidity;BMP_temperature;BMP_pressure;BME280_temperature;BME280_humidity;BME280_pressure;Samples;Min_cycle;Max_cycle;Signal;HPM_P1;HPM_P2
2021/08/07 00:02:17;;;;;;;8.80;4.95;;;;;;;14.52;67.85;99607.81;1687711;85;20962;-74
2021/08/07 00:04:43;;;;;;;9.43;5.28;;;;;;;14.38;67.96;99602.52;1686146;85;21009;-74
2021/08/07 00:07:09;;;;;;;5.75;4.55;;;;;;;14.44;68.07;99616.93;1687844;84;20957;-74
2021/08/07 00:09:35;;;;;;;5.97;4.58;;;;;;;14.42;68.20;99619.84;1686065;84;21041;-74
2021/08/07 00:12:01;;;;;;;8.38;4.42;;;;;;;14.39;68.29;99614.88;1687793;85;21071;-74
2021/08/07 00:14:27;;;;;;;6.47;4.62;;;;;;;14.30;68.35;99589.83;1686018;84;21043;-74
2021/08/07 00:16:53;;;;;;;6.95;4.22;;;;;;;14.30;68.35;99589.83;1687803;84;21537;-74
2021/08/07 00:19:19;;;;;;;9.13;4.72;;;;;;;14.41;68.54;99611.48;1686347;84;20974;-74
2021/08/07 00:21:45;;;;;;;8.75;4.33;;;;;;;14.35;68.59;99594.91;1687314;84;21022;-74
2021/08/07 00:24:11;;;;;;;8.03;4.65;;;;;;;14.46;68.65;99610.30;1686156;85;21146;-74
2021/08/07 00:26:37;;;;;;;8.70;5.00;;;;;;;14.40;68.68;99600.44;1687652;84;21482;-75
2021/08/07 00:29:03;;;;;;;6.75;4.55;;;;;;;14.49;68.76;99611.76;1686350;84;20999;-74
2021/08/07 00:31:29;;;;;;;6.30;4.80;;;;;;;14.53;68.83;99609.47;1687556;84;21018;-75
2021/08/07 00:33:55;;;;;;;5.95;4.60;;;;;;;14.58;68.81;99607.77;1686358;85;21014;-74
2021/08/07 00:36:21;;;;;;;5.83;4.42;;;;;;;14.58;68.81;99607.77;1687699;84;21130;-74
2021/08/07 00:38:48;;;;;;;7.83;4.40;;;;;;;14.56;68.95;99592.94;1686111;85;20958;-74
2021/08/07 00:41:14;;;;;;;6.87;4.53;;;;;;;14.57;69.17;99591.36;1687768;84;20989;-74
2021/08/07 00:43:40;;;;;;;9.10;5.62;;;;;;;14.57;69.17;99591.36;1686184;85;20998;-74
2021/08/07 00:46:06;;;;;;;5.65;4.40;;;;;;;14.71;69.14;99604.17;1687940;84;21037;-74
2021/08/07 00:48:32;;;;;;;9.10;5.62;;;;;;;14.74;69.21;99611.83;1686456;84;21022;-74
2021/08/07 00:50:58;;;;;;;8.80;5.55;;;;;;;14.78;69.26;99614.35;1687954;83;20959;-74
2021/08/07 00:53:24;;;;;;;8.95;5.85;;;;;;;14.84;69.35;99609.48;1686203;85;21470;-74
2021/08/07 00:55:50;;;;;;;11.25;5.85;;;;;;;14.90;69.41;99600.55;1687776;84;21034;-74
2021/08/07 00:58:16;;;;;;;8.28;5.67;;;;;;;15.00;69.47;99599.55;1686049;84;20982;-74
2021/08/07 01:00:42;;;;;;;12.68;7.75;;;;;;;15.08;69.52;99599.80;1687550;84;21196;-74
2021/08/07 01:03:23;;;;;;;8.78;6.92;;;;;;;15.16;69.70;99592.31;1686244;84;20971;-74
2021/08/07 01:06:27;;;;;;;8.30;6.35;;;;;;;15.16;69.70;99592.31;1685893;84;20978;-74
2021/08/07 01:09:11;;;;;;;8.20;4.80;;;;;;;15.17;69.75;99596.63;1686191;85;21003;-75
2021/08/07 01:12:04;;;;;;;7.47;5.00;;;;;;;15.20;69.74;99600.75;1736438;82;20988;-74
2021/08/07 01:14:35;;;;;;;6.95;5.17;;;;;;;15.20;69.79;99601.55;1735364;82;21191;-74
2021/08/07 01:17:04;;;;;;;5.70;5.10;;;;;;;15.19;69.81;99604.47;1736293;82;21035;-74
2021/08/07 01:20:12;;;;;;;6.20;5.20;;;;;;;15.11;69.87;99596.68;1735943;82;20992;-74
2021/08/07 01:23:04;;;;;;;7.33;4.62;;;;;;;15.16;69.70;99615.14;1716372;82;20971;-75
2021/08/07 01:25:56;;;;;;;11.20;5.97;;;;;;;15.14;69.96;99613.18;1688056;85;21667;-74
2021/08/07 01:28:27;;;;;;;10.32;7.22;;;;;;;15.15;70.07;99622.89;1686107;84;21499;-75
2021/08/07 01:30:53;;;;;;;12.20;7.30;;;;;;;15.15;70.07;99622.89;1736627;82;20971;-75
2021/08/07 01:33:20;;;;;;;11.43;7.70;;;;;;;15.20;70.33;99623.04;1736644;82;21019;-74
2021/08/07 01:35:48;;;;;;;9.15;6.45;;;;;;;15.20;70.33;99623.04;1736454;82;20983;-75
2021/08/07 01:38:14;;;;;;;9.78;6.70;;;;;;;15.17;70.23;99619.45;1736650;82;21007;-74
2021/08/07 01:40:40;;;;;;;15.25;7.78;;;;;;;15.21;70.32;99623.35;1716071;83;21109;-74
2021/08/07 01:43:06;;;;;;;10.48;6.50;;;;;;;15.19;70.13;99618.73;1687816;85;20993;-75
2021/08/07 01:45:32;;;;;;;8.10;6.08;;;;;;;15.14;70.45;99598.41;1686324;85;20976;-74
2021/08/07 01:48:10;;;;;;;12.10;6.03;;;;;;;15.18;70.51;99610.88;1687885;85;21077;-74
2021/08/07 01:50:39;;;;;;;8.40;6.37;;;;;;;15.18;70.63;99605.50;1686325;84;21057;-74
2021/08/07 01:53:10;;;;;;;9.00;5.62;;;;;;;15.17;70.70;99602.51;1687997;85;21059;-74
2021/08/07 01:55:58;;;;;;;7.65;5.22;;;;;;;15.13;70.92;99605.36;1686364;84;21423;-74
2021/08/07 01:58:28;;;;;;;9.23;5.50;;;;;;;15.13;70.92;99605.36;1719601;82;20987;-74
2021/08/07 02:00:55;;;;;;;6.00;4.83;;;;;;;15.10;70.96;99599.88;1716423;83;21427;-75
2021/08/07 02:03:22;;;;;;;8.43;5.85;;;;;;;15.09;71.07;99606.31;1687936;84;20989;-75
2021/08/07 02:05:48;;;;;;;6.22;4.85;;;;;;;15.10;71.18;99603.91;1686358;85;21168;-75
2021/08/07 02:08:14;;;;;;;7.45;5.90;;;;;;;15.09;71.25;99603.63;1687723;84;20978;-75
2021/08/07 02:10:43;;;;;;;7.12;5.92;;;;;;;15.08;71.22;99601.15;1685991;85;21017;-75
2021/08/07 02:13:11;;;;;;;10.20;7.08;;;;;;;15.08;71.43;99600.63;1736742;82;20949;-75
2021/08/07 02:15:37;;;;;;;8.73;6.25;;;;;;;15.09;71.53;99601.46;1716486;83;21023;-75
2021/08/07 02:18:03;;;;;;;7.75;5.83;;;;;;;15.10;71.58;99599.88;1687829;84;21552;-75
2021/08/07 02:20:29;;;;;;;11.43;7.25;;;;;;;15.10;71.54;99598.53;1686270;85;21521;-75
2021/08/07 02:22:55;;;;;;;14.83;8.68;;;;;;;15.07;71.83;99589.58;1687394;83;21033;-75
2021/08/07 02:25:22;;;;;;;11.83;7.95;;;;;;;15.15;71.98;99593.34;1686385;84;20981;-75
2021/08/07 02:27:49;;;;;;;11.53;7.92;;;;;;;15.16;72.08;99588.80;1687641;85;21029;-74
2021/08/07 02:30:15;;;;;;;9.00;7.10;;;;;;;15.17;72.30;99593.94;1686642;85;21095;-74
2021/08/07 02:32:41;;;;;;;10.13;6.25;;;;;;;15.17;72.30;99593.94;1687454;83;20979;-74
2021/08/07 02:35:09;;;;;;;9.18;7.10;;;;;;;15.15;72.42;99593.34;1686300;84;21053;-74
2021/08/07 02:37:36;;;;;;;9.00;6.10;;;;;;;15.17;72.55;99589.91;1687416;85;21525;-74
2021/08/07 02:40:04;;;;;;;8.88;7.33;;;;;;;15.19;72.66;99599.92;1686376;84;20990;-74
2021/08/07 02:42:30;;;;;;;9.85;7.42;;;;;;;15.18;72.77;99600.96;1687949;84;21874;-74
2021/08/07 02:44:56;;;;;;;8.50;6.50;;;;;;;15.18;72.77;99600.96;1686380;85;20975;-74
2021/08/07 02:47:24;;;;;;;12.30;6.03;;;;;;;15.17;72.98;99600.65;1719933;82;20991;-75
2021/08/07 02:49:51;;;;;;;7.47;5.37;;;;;;;15.16;73.10;99613.80;1707810;83;21022;-74
2021/08/07 02:52:17;;;;;;;6.33;5.65;;;;;;;15.02;73.21;99602.86;1736503;82;21006;-74
2021/08/07 02:54:43;;;;;;;5.65;5.00;;;;;;;15.02;73.21;99602.86;1716512;82;21082;-74
2021/08/07 02:57:09;;;;;;;8.28;5.75;;;;;;;15.07;73.52;99625.83;1687759;84;21466;-74
2021/08/07 02:59:35;;;;;;;8.25;6.08;;;;;;;15.07;73.52;99625.83;1686957;84;21496;-74
2021/08/07 03:02:02;;;;;;;7.12;5.87;;;;;;;15.06;73.64;99630.89;1717619;83;21486;-74
2021/08/07 03:04:28;;;;;;;8.80;5.65;;;;;;;14.96;73.75;99617.95;1689113;84;22265;-75
2021/08/07 03:06:54;;;;;;;10.50;5.67;;;;;;;14.98;74.03;99621.78;1687401;85;21845;-74
2021/08/07 03:09:20;;;;;;;7.65;6.47;;;;;;;14.98;74.03;99621.78;1717693;83;21050;-74
2021/08/07 03:11:47;;;;;;;8.85;6.28;;;;;;;14.96;74.07;99619.81;1688970;85;21034;-74
2021/08/07 03:14:13;;;;;;;7.00;5.58;;;;;;;14.93;74.30;99624.28;1687340;84;21133;-75
2021/08/07 03:16:39;;;;;;;7.50;6.35;;;;;;;14.91;74.33;99621.83;1717916;83;21050;-74
2021/08/07 03:19:05;;;;;;;7.78;6.53;;;;;;;14.77;74.59;99597.97;1688966;85;21134;-74
2021/08/07 03:21:31;;;;;;;6.92;6.22;;;;;;;14.77;74.59;99597.97;1687436;85;21084;-74
2021/08/07 03:23:58;;;;;;;7.00;6.30;;;;;;;14.88;74.62;99625.47;1717562;83;21030;-74
2021/08/07 03:26:24;;;;;;;8.00;6.67;;;;;;;14.87;74.72;99622.47;1689109;85;21553;-74
2021/08/07 03:28:50;;;;;;;11.28;6.42;;;;;;;14.85;74.83;99625.88;1687413;84;21576;-74
2021/08/07 03:31:16;;;;;;;7.30;6.45;;;;;;;14.84;74.96;99628.28;1717730;83;21129;-74
2021/08/07 03:33:43;;;;;;;7.35;6.65;;;;;;;14.85;75.04;99629.90;1688680;85;21055;-74
2021/08/07 03:36:10;;;;;;;9.03;6.92;;;;;;;14.86;75.16;99626.19;1687135;84;21059;-74
2021/08/07 03:38:36;;;;;;;8.25;7.28;;;;;;;14.86;75.26;99626.19;1717602;83;21475;-74
2021/08/07 03:41:02;;;;;;;11.28;7.12;;;;;;;14.85;75.38;99625.36;1689014;84;21062;-74
2021/08/07 03:43:28;;;;;;;7.85;6.83;;;;;;;14.87;75.48;99625.16;1687340;84;21131;-74
2021/08/07 03:45:54;;;;;;;8.33;7.47;;;;;;;14.86;75.60;99621.64;1717395;83;21019;-74
2021/08/07 03:48:20;;;;;;;11.53;7.55;;;;;;;14.88;75.69;99618.75;1688929;84;21054;-74
2021/08/07 03:50:47;;;;;;;10.13;7.47;;;;;;;14.81;75.80;99608.58;1687021;85;21054;-74
2021/08/07 03:53:13;;;;;;;9.23;6.70;;;;;;;14.81;75.80;99608.58;1717810;83;21042;-74
2021/08/07 03:55:39;;;;;;;7.92;7.03;;;;;;;14.92;76.02;99628.00;1688918;85;21122;-74
2021/08/07 03:58:05;;;;;;;11.73;7.60;;;;;;;14.92;76.02;99628.00;1687266;85;21024;-74
2021/08/07 04:00:33;;;;;;;9.90;7.15;;;;;;;14.96;76.20;99626.02;1726021;82;21030;-74
2021/08/07 04:02:59;;;;;;;14.07;9.45;;;;;;;15.01;76.33;99630.74;1698538;84;21555;-75
2021/08/07 04:05:25;;;;;;;10.20;7.92;;;;;;;15.01;76.33;99630.74;1697270;84;21518;-74
2021/08/07 04:07:52;;;;;;;10.28;7.53;;;;;;;15.06;76.38;99634.92;1727764;83;21570;-74
2021/08/07 04:10:18;;;;;;;9.43;7.87;;;;;;;15.03;76.45;99617.91;1698605;84;21600;-74
2021/08/07 04:12:44;;;;;;;10.00;8.15;;;;;;;15.49;76.79;99629.66;1697255;84;21043;-75
2021/08/07 04:15:11;;;;;;;10.05;7.87;;;;;;;16.39;77.00;99633.46;1727660;83;21081;-75
2021/08/07 04:17:38;;;;;;;11.73;8.48;;;;;;;17.18;76.76;99629.66;1698700;84;21070;-75
2021/08/07 04:20:06;;;;;;;9.28;7.17;;;;;;;17.88;76.42;99633.25;1696903;84;21850;-75
2021/08/07 04:22:32;;;;;;;7.15;5.90;;;;;;;18.50;76.12;99628.09;1727715;83;21577;-75
2021/08/07 04:24:58;;;;;;;8.55;5.58;;;;;;;19.07;75.62;99633.78;1698059;84;21483;-75
2021/08/07 04:27:24;;;;;;;7.28;5.83;;;;;;;19.51;75.26;99642.12;1697083;84;21067;-75
2021/08/07 04:29:50;;;;;;;8.95;6.28;;;;;;;19.87;74.78;99637.55;1727754;83;21030;-75
2021/08/07 04:32:17;;;;;;;9.00;6.72;;;;;;;20.25;74.35;99642.11;1698762;83;21147;-75
2021/08/07 04:34:44;;;;;;;11.97;5.78;;;;;;;20.65;73.74;99641.30;1696992;84;21023;-75
2021/08/07 04:37:10;;;;;;;5.67;5.05;;;;;;;20.92;73.10;99644.02;1727751;82;21018;-75
2021/08/07 04:39:36;;;;;;;6.15;4.55;;;;;;;21.27;72.54;99647.09;1717562;83;20968;-75
2021/08/07 04:42:02;;;;;;;6.12;5.28;;;;;;;21.48;71.71;99645.91;1717097;83;21015;-75
2021/08/07 04:44:28;;;;;;;8.65;6.60;;;;;;;21.64;71.10;99643.60;1717848;83;21288;-75
2021/08/07 04:46:54;;;;;;;9.55;6.08;;;;;;;21.68;70.36;99648.77;1752682;81;20970;-75
2021/08/07 04:49:21;;;;;;;6.20;5.22;;;;;;;21.76;69.72;99654.54;1727453;83;21069;-75
2021/08/07 04:51:47;;;;;;;6.58;4.72;;;;;;;21.92;69.05;99648.68;1727546;83;21002;-75
2021/08/07 04:54:13;;;;;;;6.92;4.65;;;;;;;22.04;68.55;99647.95;1698471;84;21097;-75
2021/08/07 04:56:39;;;;;;;6.67;4.85;;;;;;;22.11;67.78;99648.53;1697012;84;22021;-75
2021/08/07 04:59:05;;;;;;;8.40;5.08;;;;;;;21.99;66.87;99647.91;1727476;81;21070;-75
2021/08/07 05:01:31;;;;;;;8.30;5.97;;;;;;;21.64;66.48;99646.31;1717651;83;21043;-75
2021/08/07 05:03:57;;;;;;;7.25;4.90;;;;;;;21.16;66.67;99646.72;1717376;83;21003;-75
2021/08/07 05:06:23;;;;;;;8.10;4.28;;;;;;;20.81;66.86;99646.33;1717631;83;21102;-75
2021/08/07 05:08:49;;;;;;;4.47;4.05;;;;;;;20.55;67.08;99642.51;1753438;81;21244;-75
2021/08/07 05:11:15;;;;;;;7.75;4.30;;;;;;;20.47;67.21;99638.09;1753349;81;21021;-75
2021/08/07 05:13:41;;;;;;;8.05;5.00;;;;;;;20.42;67.22;99643.73;1753376;81;20997;-75
2021/08/07 05:16:07;;;;;;;4.95;4.25;;;;;;;20.39;67.20;99641.52;1753771;81;21443;-75
2021/08/07 05:18:33;;;;;;;4.97;4.25;;;;;;;20.44;67.19;99646.98;1753530;81;21465;-75
2021/08/07 05:21:00;;;;;;;5.17;3.70;;;;;;;20.49;67.09;99644.88;1753361;81;21476;-75
2021/08/07 05:23:26;;;;;;;5.55;3.60;;;;;;;20.50;67.02;99652.48;1753466;81;20935;-75
2021/08/07 05:25:52;;;;;;;8.03;3.95;;;;;;;20.44;66.95;99659.73;1730112;81;21011;-76
2021/08/07 05:28:18;;;;;;;5.33;3.47;;;;;;;20.47;66.91;99659.23;1721453;82;21042;-75
2021/08/07 05:30:44;;;;;;;4.50;4.05;;;;;;;20.47;66.84;99655.70;1733883;82;21483;-75
2021/08/07 05:33:10;;;;;;;5.47;3.85;;;;;;;20.34;66.76;99656.34;1733859;82;21538;-75
2021/08/07 05:35:36;;;;;;;6.50;3.77;;;;;;;20.48;66.79;99653.28;1733755;82;20971;-75
2021/08/07 05:38:02;;;;;;;6.20;3.77;;;;;;;20.61;66.71;99656.42;1733388;82;21022;-75
2021/08/07 05:40:29;;;;;;;6.45;3.62;;;;;;;20.75;66.47;99656.31;1734135;82;20971;-75
2021/08/07 05:42:56;;;;;;;8.43;3.98;;;;;;;20.70;66.36;99657.59;1733883;82;21003;-75
2021/08/07 05:45:22;;;;;;;6.03;3.70;;;;;;;20.83;66.36;99658.55;1779187;80;22072;-76
2021/08/07 05:47:48;;;;;;;6.40;3.65;;;;;;;20.99;66.24;99656.83;1780024;80;21019;-75
2021/08/07 05:50:15;;;;;;;5.92;3.40;;;;;;;21.23;66.11;99658.17;1777291;80;21011;-76
2021/08/07 05:52:41;;;;;;;4.10;3.70;;;;;;;21.25;65.82;99664.14;1770535;80;20954;-76
2021/08/07 05:55:08;;;;;;;4.28;3.40;;;;;;;21.32;65.70;99671.53;1768887;80;21026;-76
2021/08/07 05:57:34;;;;;;;4.53;3.12;;;;;;;21.46;65.55;99667.06;1786105;80;21619;-76
2021/08/07 06:00:02;;;;;;;5.75;3.33;;;;;;;21.44;65.32;99663.23;1778517;79;21000;-75
2021/08/07 06:02:32;;;;;;;4.55;3.77;;;;;;;21.53;65.22;99659.52;1766958;80;20985;-76
2021/08/07 06:04:56;;;;;;;5.85;3.70;;;;;;;21.54;64.96;99654.35;1766773;80;20980;-76
2021/08/07 06:07:22;;;;;;;10.00;4.75;;;;;;;21.54;64.82;99653.00;1763241;81;21825;-75
2021/08/07 06:09:48;;;;;;;6.62;3.35;;;;;;;21.53;64.61;99651.38;1735511;82;21449;-76
2021/08/07 06:12:14;;;;;;;5.97;3.62;;;;;;;21.70;64.57;99650.16;1700977;83;21508;-76
2021/08/07 06:14:40;;;;;;;5.45;2.98;;;;;;;21.80;64.38;99649.41;1721284;81;20987;-76
2021/08/07 06:17:06;;;;;;;4.35;3.08;;;;;;;22.03;64.19;99656.34;1717875;81;20995;-76
2021/08/07 06:19:32;;;;;;;3.60;3.05;;;;;;;21.94;63.82;99651.97;1739880;82;21050;-76
2021/08/07 06:21:58;;;;;;;4.25;3.20;;;;;;;21.83;63.59;99651.59;1750131;81;21709;-75
2021/08/07 06:24:24;;;;;;;5.10;3.15;;;;;;;21.67;63.42;99656.11;1721339;82;21071;-75
2021/08/07 06:26:50;;;;;;;5.72;3.10;;;;;;;21.67;63.37;99657.47;1731297;81;21078;-76
2021/08/07 06:29:16;;;;;;;5.35;3.10;;;;;;;21.75;63.25;99654.25;1703429;83;21002;-76
2021/08/07 06:31:42;;;;;;;6.30;2.67;;;;;;;21.80;63.13;99658.91;1694046;83;21051;-76
2021/08/07 06:34:08;;;;;;;6.67;3.47;;;;;;;21.97;63.06;99660.95;1691824;84;21569;-75
2021/08/07 06:36:34;;;;;;;7.95;3.00;;;;;;;22.09;62.93;99666.19;1699371;83;21045;-76
2021/08/07 06:39:00;;;;;;;6.25;2.70;;;;;;;22.45;63.00;99669.91;1743138;81;21081;-75
2021/08/07 06:41:26;;;;;;;7.65;4.90;;;;;;;22.45;62.58;99673.41;1724632;81;21643;-76
2021/08/07 06:43:52;;;;;;;8.03;3.25;;;;;;;22.58;62.50;99677.56;1700609;83;21397;-76
2021/08/07 06:46:18;;;;;;;5.62;2.62;;;;;;;22.67;62.23;99678.70;1692069;84;22436;-76
2021/08/07 06:48:44;;;;;;;3.65;2.52;;;;;;;22.67;62.00;99681.42;1709216;83;21408;-76
2021/08/07 06:51:10;;;;;;;7.30;3.50;;;;;;;22.72;61.82;99678.73;1692983;83;21062;-76
2021/08/07 06:53:37;;;;;;;7.30;3.30;;;;;;;22.77;61.64;99688.25;1703200;84;21014;-76
2021/08/07 06:56:03;;;;;;;7.28;2.80;;;;;;;22.96;61.41;99689.95;1705566;83;21046;-76
2021/08/07 06:58:29;;;;;;;7.67;2.95;;;;;;;23.07;61.27;99688.89;1720470;81;21873;-76
2021/08/07 07:00:55;;;;;;;4.22;2.60;;;;;;;23.09;61.01;99691.61;1759893;80;21461;-76
2021/08/07 07:03:21;;;;;;;4.53;2.95;;;;;;;23.27;60.96;99692.47;1757300;80;21521;-76
2021/08/07 07:05:47;;;;;;;5.65;3.02;;;;;;;23.28;60.65;99694.11;1756740;81;21495;-76
2021/08/07 07:08:13;;;;;;;2.95;2.40;;;;;;;23.23;60.33;99687.28;1747771;81;21475;-76
2021/08/07 07:10:40;;;;;;;2.72;2.12;;;;;;;23.26;60.27;99696.27;1726608;81;22652;-76
2021/08/07 07:13:06;;;;;;;3.02;2.35;;;;;;;23.16;59.86;99696.25;1735523;82;21019;-76
2021/08/07 07:15:32;;;;;;;5.90;2.50;;;;;;;23.01;59.52;99692.12;1784942;80;21536;-76
2021/08/07 07:17:58;;;;;;;4.85;2.20;;;;;;;22.98;59.34;99701.37;1784709;80;21430;-76
2021/08/07 07:20:24;;;;;;;8.85;2.30;;;;;;;23.02;59.25;99701.93;1784982;80;20998;-76
2021/08/07 07:22:50;;;;;;;3.92;2.12;;;;;;;23.00;58.91;99702.76;1756663;81;22899;-76
2021/08/07 07:25:17;;;;;;;10.50;2.50;;;;;;;23.07;58.76;99701.95;1756317;81;21022;-75
2021/08/07 07:27:43;;;;;;;16.70;3.35;;;;;;;23.20;58.59;99709.59;1753804;81;20999;-75
2021/08/07 07:30:11;;;;;;;4.25;2.02;;;;;;;23.23;58.38;99710.41;1753451;81;21020;-76
2021/08/07 07:32:37;;;;;;;5.28;2.25;;;;;;;23.44;58.30;99709.11;1732018;81;21042;-76
2021/08/07 07:35:04;;;;;;;5.67;2.83;;;;;;;23.56;58.04;99707.77;1757962;81;22442;-76
2021/08/07 07:37:30;;;;;;;3.70;2.17;;;;;;;23.70;57.93;99708.86;1758040;81;21057;-73
2021/08/07 07:39:56;;;;;;;3.60;2.47;;;;;;;23.88;57.81;99700.69;1745046;81;21032;-73
2021/08/07 07:42:22;;;;;;;4.80;2.50;;;;;;;23.94;57.38;99699.58;1717864;81;21046;-73
2021/08/07 07:44:48;;;;;;;8.28;2.27;;;;;;;24.00;57.30;99705.28;1784664;80;21007;-73
2021/08/07 07:47:14;;;;;;;3.27;1.90;;;;;;;24.07;56.99;99703.09;1779247;80;21822;-73
2021/08/07 07:49:40;;;;;;;4.10;2.50;;;;;;;24.16;56.71;99704.76;1781637;80;21603;-73
2021/08/07 07:52:06;;;;;;;9.20;2.47;;;;;;;24.07;56.39;99703.64;1784437;80;20911;-72
2021/08/07 07:54:32;;;;;;;5.55;2.22;;;;;;;24.17;56.27;99706.41;1784345;80;21446;-73
2021/08/07 07:57:00;;;;;;;3.90;1.85;;;;;;;24.11;55.95;99711.53;1784950;80;20900;-73
2021/08/07 07:59:26;;;;;;;4.72;2.02;;;;;;;23.86;55.56;99713.74;1780078;80;21502;-73
2021/08/07 08:01:52;;;;;;;32.15;3.98;;;;;;;23.88;55.55;99715.12;1780360;80;20991;-73
2021/08/07 08:04:18;;;;;;;12.47;2.10;;;;;;;23.91;55.39;99715.66;1724843;81;21620;-72
2021/08/07 08:06:44;;;;;;;5.92;2.00;;;;;;;24.02;55.24;99712.66;1731671;81;21018;-73
2021/08/07 08:09:10;;;;;;;3.37;2.27;;;;;;;24.12;55.21;99709.91;1732919;82;21003;-72
2021/08/07 08:11:36;;;;;;;6.80;4.12;;;;;;;24.10;54.91;99714.01;1743419;81;21760;-75
2021/08/07 08:14:02;;;;;;;3.15;2.12;;;;;;;24.22;54.87;99714.00;1757220;81;21037;-75
2021/08/07 08:16:28;;;;;;;5.83;1.95;;;;;;;24.40;54.79;99710.41;1746473;81;21050;-75
2021/08/07 08:18:54;;;;;;;2.55;2.00;;;;;;;24.52;54.57;99718.57;1738344;81;21097;-75
2021/08/07 08:21:20;;;;;;;2.92;1.87;;;;;;;24.65;54.42;99715.78;1776636;79;20989;-75
2021/08/07 08:23:47;;;;;;;3.92;1.95;;;;;;;24.85;54.34;99715.72;1774426;80;21826;-75
2021/08/07 08:26:13;;;;;;;3.42;1.85;;;;;;;24.90;53.77;99720.34;1761009;80;21227;-75
2021/08/07 08:28:39;;;;;;;3.37;1.70;;;;;;;24.84;53.36;99711.36;1784740;80;20979;-75
2021/08/07 08:31:07;;;;;;;4.00;1.52;;;;;;;24.84;53.14;99711.36;1784852;80;20995;-75
2021/08/07 08:33:34;;;;;;;6.47;1.50;;;;;;;24.68;52.65;99713.86;1785037;80;21613;-75
2021/08/07 08:36:01;;;;;;;3.80;1.52;;;;;;;24.69;52.38;99707.32;1784643;80;21815;-76
2021/08/07 08:38:27;;;;;;;4.28;1.50;;;;;;;24.76;52.12;99707.84;1784846;80;20903;-75
2021/08/07 08:40:57;;;;;;;8.80;1.87;;;;;;;24.52;51.80;99713.66;1785032;80;20999;-75
2021/08/07 08:43:24;;;;;;;7.80;1.98;;;;;;;24.47;51.99;99711.76;1784149;80;21074;-76
2021/08/07 08:45:50;;;;;;;8.93;2.00;;;;;;;24.04;51.83;99715.91;1783934;80;21498;-76
2021/08/07 08:48:19;;;;;;;3.15;1.60;;;;;;;24.08;52.20;99718.36;1784487;80;22572;-76
2021/08/07 08:50:46;;;;;;;4.33;1.47;;;;;;;24.48;52.35;99718.03;1779795;80;20999;-76
2021/08/07 08:53:12;;;;;;;3.45;1.90;;;;;;;24.73;52.18;99715.22;1753467;81;21066;-76
2021/08/07 08:55:39;;;;;;;4.30;1.30;;;;;;;24.92;52.11;99701.77;1777515;80;21038;-76
2021/08/07 08:58:05;;;;;;;2.35;1.50;;;;;;;24.91;51.79;99709.14;1784716;80;21380;-76
2021/08/07 09:00:31;;;;;;;5.00;2.08;;;;;;;25.22;51.83;99702.44;1784835;80;21938;-75
2021/08/07 09:02:57;;;;;;;3.75;1.35;;;;;;;25.61;51.65;99702.45;1781677;80;21005;-76
2021/08/07 09:05:23;;;;;;;3.22;1.62;;;;;;;25.68;51.05;99704.86;1784926;80;21002;-76
2021/08/07 09:07:49;;;;;;;2.50;1.27;;;;;;;25.46;50.54;99707.17;1783052;80;21534;-76
2021/08/07 09:10:15;;;;;;;5.80;1.30;;;;;;;25.29;50.51;99711.13;1783193;80;21113;-76
2021/08/07 09:12:48;;;;;;;2.52;1.40;;;;;;;24.85;50.33;99713.00;1780523;80;21929;-76
2021/08/07 09:15:37;;;;;;;6.58;1.50;;;;;;;24.70;50.44;99708.96;1770780;80;20975;-76
2021/08/07 09:18:25;;;;;;;4.30;1.80;;;;;;;24.73;50.42;99705.67;1769133;80;20958;-75
2021/08/07 09:20:52;;;;;;;5.40;2.45;;;;;;;24.62;50.46;99706.80;1779935;80;20946;-76
2021/08/07 09:23:31;;;;;;;5.50;1.67;;;;;;;24.80;50.46;99708.37;1784539;80;21037;-76
2021/08/07 09:25:57;;;;;;;2.65;1.70;;;;;;;25.11;50.46;99705.50;1779492;80;21907;-76
2021/08/07 09:28:23;;;;;;;5.17;1.60;;;;;;;25.35;50.16;99701.80;1733507;80;21673;-75
2021/08/07 09:30:49;;;;;;;5.55;1.72;;;;;;;25.51;50.00;99708.55;1755298;80;22113;-76
2021/08/07 09:33:22;;;;;;;3.62;1.55;;;;;;;25.29;49.74;99708.39;1744257;81;20962;-77
2021/08/07 09:35:48;;;;;;;14.53;1.80;;;;;;;24.85;49.46;99710.27;1755855;81;21011;-77
2021/08/07 09:38:22;;;;;;;6.87;1.57;;;;;;;24.49;49.67;99714.22;1759362;81;21837;-77
2021/08/07 09:41:01;;;;;;;5.30;1.70;;;;;;;24.68;49.99;99704.31;1738152;80;20995;-76
2021/08/07 09:43:32;;;;;;;;;;;;;;;25.05;49.95;99700.60;1752816;81;21002;-77
2021/08/07 09:46:05;;;;;;;2.30;1.45;;;;;;;25.12;49.56;99697.02;1783845;80;20147;-77
2021/08/07 09:48:46;;;;;;;2.65;1.57;;;;;;;24.59;49.34;99697.82;1781534;80;20927;-76
2021/08/07 09:51:32;;;;;;;1.82;1.50;;;;;;;24.17;49.59;99696.29;1777903;80;22647;-76
2021/08/07 09:54:06;;;;;;;5.20;1.85;;;;;;;23.94;49.76;99695.49;1780467;80;21034;-76
2021/08/07 09:56:45;;;;;;;6.00;1.45;;;;;;;23.79;50.07;99702.31;1784575;80;21057;-76
2021/08/07 09:59:11;;;;;;;1.65;1.50;;;;;;;24.23;50.33;99703.38;1782424;80;21015;-76
2021/08/07 10:01:37;;;;;;;2.47;1.55;;;;;;;24.65;50.21;99706.24;1772161;79;21380;-76
2021/08/07 10:04:07;;;;;;;3.58;1.45;;;;;;;24.76;50.09;99707.30;1726010;81;22587;-76
2021/08/07 10:06:34;;;;;;;8.75;1.62;;;;;;;24.53;49.96;99709.82;1743949;81;21468;-76
2021/08/07 10:09:00;;;;;;;2.60;1.45;;;;;;;24.33;50.13;99702.53;1746220;81;21294;-76
2021/08/07 10:11:27;;;;;;;5.53;1.92;;;;;;;24.13;50.26;99706.67;1746066;81;21000;-76
2021/08/07 10:13:53;;;;;;;4.70;1.90;;;;;;;24.27;50.43;99710.46;1717120;82;21023;-76
2021/08/07 10:16:19;;;;;;;4.10;1.65;;;;;;;24.21;50.29;99706.09;1721335;82;21952;-76
2021/08/07 10:18:45;;;;;;;8.75;1.55;;;;;;;24.23;50.33;99700.66;1716551;83;21028;-76
2021/08/07 10:21:12;;;;;;;2.65;1.15;;;;;;;24.57;50.24;99699.45;1718012;82;21376;-76
2021/08/07 10:23:38;;;;;;;3.50;1.32;;;;;;;24.53;49.89;99704.36;1736230;81;21028;-77
2021/08/07 10:26:08;;;;;;;7.20;1.60;;;;;;;24.35;49.78;99713.42;1692061;84;21031;-77
2021/08/07 10:28:34;;;;;;;;;;;;;;;24.21;49.88;99715.09;1705489;84;22541;-76
2021/08/07 10:31:01;;;;;;;9.85;1.60;;;;;;;24.05;49.76;99719.45;1702980;84;20309;-76
2021/08/07 10:33:27;;;;;;;3.98;1.60;;;;;;;23.90;49.81;99714.83;1701897;84;21052;-76
2021/08/07 10:35:53;;;;;;;3.50;1.22;;;;;;;;;;1701890;83;21053;-76
2021/08/07 10:38:19;;;;;;;4.80;3.22;;;;;;;23.80;50.05;99714.84;1706515;82;21049;-76
2021/08/07 10:40:45;;;;;;;8.30;5.30;;;;;;;23.87;50.03;99710.76;1705516;83;21722;-76
2021/08/07 10:43:13;;;;;;;4.28;1.75;;;;;;;24.01;50.02;99713.73;1720424;81;21121;-76
2021/08/07 10:45:41;;;;;;;4.45;1.62;;;;;;;24.25;50.02;99716.17;1710558;82;21030;-76
2021/08/07 10:48:27;;;;;;;3.95;1.55;;;;;;;24.48;49.89;99712.58;1704833;82;21508;-76
2021/08/07 10:50:54;;;;;;;5.35;1.60;;;;;;;24.71;49.68;99709.20;1690937;84;20920;-76
2021/08/07 10:53:25;;;;;;;6.55;1.60;;;;;;;24.86;49.39;99705.09;1724883;83;21813;-76
2021/08/07 10:55:56;;;;;;;4.67;1.30;;;;;;;25.01;49.12;99700.92;1723275;83;21062;-77
2021/08/07 10:58:44;;;;;;;4.67;1.42;;;;;;;24.88;48.58;99697.42;1723192;83;21564;-76
2021/08/07 11:01:26;;;;;;;4.78;1.60;;;;;;;24.62;48.56;99699.44;1719888;83;21605;-76
2021/08/07 11:04:12;;;;;;;2.55;1.50;;;;;;;24.26;48.19;99696.55;1705282;84;21073;-76
2021/08/07 11:06:51;;;;;;;1.32;1.20;;;;;;;24.09;48.17;99698.20;1705344;84;22410;-76
2021/08/07 11:09:30;;;;;;;1.35;1.10;;;;;;;24.38;48.36;99691.05;1704091;83;21018;-76
2021/08/07 11:12:15;;;;;;;1.02;0.90;;;;;;;24.75;48.35;99698.02;1705481;84;20911;-76
2021/08/07 11:14:57;;;;;;;2.10;1.40;;;;;;;25.03;48.22;99686.44;1705428;83;21002;-76
2021/08/07 11:17:27;;;;;;;3.30;1.22;;;;;;;25.20;48.03;99699.16;1705411;84;21514;-76
2021/08/07 11:20:03;;;;;;;3.95;1.05;;;;;;;25.42;47.89;99682.91;1705036;83;22571;-76
2021/08/07 11:22:40;;;;;;;14.58;2.10;;;;;;;25.51;47.32;99676.56;1705112;83;21018;-76
2021/08/07 11:25:11;;;;;;;14.58;2.45;;;;;;;25.55;47.13;99680.36;1705289;84;21014;-76
2021/08/07 11:30:39;;;;;;;2.58;1.25;;;;;;;25.41;46.34;99672.52;1704995;84;21470;-76
2021/08/07 11:33:14;;;;;;;2.77;1.30;;;;;;;25.15;46.22;99671.09;1704756;83;21742;-76
2021/08/07 11:36:04;;;;;;;4.33;1.80;;;;;;;25.23;46.25;99670.47;1705227;84;21797;-76
2021/08/07 11:38:31;;;;;;;2.17;1.40;;;;;;;25.44;46.19;99656.14;1679859;85;21030;-76
2021/08/07 11:41:06;;;;;;;2.80;1.52;;;;;;;25.73;46.04;99663.82;1694922;84;21013;-76
2021/08/07 11:43:40;;;;;;;4.65;1.60;;;;;;;25.70;45.78;99664.40;1694675;84;21493;-76